Time,TemperatureF,DewpointF,PressureIn,WindDirection,WindDirectionDegrees,WindSpeedMPH,WindSpeedGustMPH,Humidity,HourlyPrecipIn,Conditions,Clouds,dailyrainin,SoftwareType,DateUTC
2013-08-24 00:05:00,72.3,68.5,30.06,SE,139,0.0,2.0,88,0.00,,,0.00,Wunderground v.1.15,2013-08-24 05:05:00,
2013-08-24 00:10:00,72.2,68.4,30.06,SE,139,0.0,0.0,88,0.00,,,0.00,Wunderground v.1.15,2013-08-24 05:10:00,
2013-08-24 00:22:00,71.9,68.5,30.06,SE,139,0.0,0.0,89,0.00,,,0.00,Wunderground v.1.15,2013-08-24 05:22:00,
2013-08-24 00:28:00,71.7,68.3,30.07,SE,139,0.0,0.0,89,0.00,,,0.00,Wunderground v.1.15,2013-08-24 05:28:00,
2013-08-24 00:33:00,71.6,68.2,30.07,SE,139,0.0,4.0,89,0.00,,,0.00,Wunderground v.1.15,2013-08-24 05:33:00,
2013-08-24 00:39:00,71.4,68.0,30.07,SE,139,0.0,4.0,89,0.00,,,0.00,Wunderground v.1.15,2013-08-24 05:39:00,
2013-08-24 00:48:00,71.2,68.1,30.07,SE,139,0.0,4.0,90,0.00,,,0.00,Wunderground v.1.15,2013-08-24 05:48:00,
2013-08-24 00:54:00,71.0,67.9,30.07,SE,139,1.0,4.0,90,0.00,,,0.00,Wunderground v.1.15,2013-08-24 05:54:00,
2013-08-24 01:00:00,71.0,67.9,30.07,SE,139,1.0,1.0,90,0.00,,,0.00,Wunderground v.1.15,2013-08-24 06:00:00,
2013-08-24 01:05:00,71.0,67.9,30.07,SE,139,1.0,4.0,90,0.00,,,0.00,Wunderground v.1.15,2013-08-24 06:05:00,
2013-08-24 01:11:00,70.8,67.7,30.07,SE,139,0.0,4.0,90,0.00,,,0.00,Wunderground v.1.15,2013-08-24 06:11:00,
2013-08-24 01:16:00,70.5,67.4,30.07,SE,139,0.0,4.0,90,0.00,,,0.00,Wunderground v.1.15,2013-08-24 06:16:00,
2013-08-24 01:22:00,70.3,67.5,30.07,SE,139,0.0,4.0,91,0.00,,,0.00,Wunderground v.1.15,2013-08-24 06:22:00,
2013-08-24 01:27:00,70.1,67.3,30.07,SE,139,0.0,4.0,91,0.00,,,0.00,Wunderground v.1.15,2013-08-24 06:27:00,
2013-08-24 01:39:00,69.9,67.2,30.08,SE,139,0.0,4.0,91,0.00,,,0.00,Wunderground v.1.15,2013-08-24 06:39:00,
2013-08-24 01:44:00,69.6,67.2,30.08,SE,139,0.0,4.0,92,0.00,,,0.00,Wunderground v.1.15,2013-08-24 06:44:00,
2013-08-24 01:51:00,69.6,67.2,30.08,SE,139,0.0,4.0,92,0.00,,,0.00,Wunderground v.1.15,2013-08-24 06:51:00,
2013-08-24 01:57:00,69.7,67.6,30.08,SE,139,0.0,4.0,93,0.00,,,0.00,Wunderground v.1.15,2013-08-24 06:57:00,
2013-08-24 02:03:00,69.7,67.6,30.08,SE,139,0.0,4.0,93,0.00,,,0.00,Wunderground v.1.15,2013-08-24 07:03:00,
2013-08-24 02:08:00,69.7,67.6,30.08,SE,139,0.0,4.0,93,0.00,,,0.00,Wunderground v.1.15,2013-08-24 07:08:00,
2013-08-24 02:14:00,69.7,67.6,30.08,SE,139,0.0,4.0,93,0.00,,,0.00,Wunderground v.1.15,2013-08-24 07:14:00,
2013-08-24 02:19:00,69.7,67.6,30.08,SE,139,0.0,4.0,93,0.00,,,0.00,Wunderground v.1.15,2013-08-24 07:19:00,
2013-08-24 02:25:00,69.6,67.5,30.08,SE,139,0.0,4.0,93,0.00,,,0.00,Wunderground v.1.15,2013-08-24 07:25:00,
2013-08-24 02:31:00,69.6,67.5,30.08,SE,139,0.0,4.0,93,0.00,,,0.00,Wunderground v.1.15,2013-08-24 07:31:00,
2013-08-24 02:38:00,69.6,67.5,30.08,SE,139,0.0,4.0,93,0.00,,,0.00,Wunderground v.1.15,2013-08-24 07:38:00,
2013-08-24 02:52:00,69.5,67.4,30.09,SE,139,0.0,4.0,93,0.00,,,0.00,Wunderground v.1.15,2013-08-24 07:52:00,
2013-08-24 02:58:00,69.4,67.3,30.09,SE,139,0.0,4.0,93,0.00,,,0.00,Wunderground v.1.15,2013-08-24 07:58:00,
2013-08-24 03:03:00,69.3,67.2,30.09,SE,139,0.0,4.0,93,0.00,,,0.00,Wunderground v.1.15,2013-08-24 08:03:00,
2013-08-24 03:09:00,69.2,67.1,30.09,SE,139,0.0,4.0,93,0.00,,,0.00,Wunderground v.1.15,2013-08-24 08:09:00,
2013-08-24 03:14:00,69.0,66.6,30.09,SE,139,0.0,4.0,92,0.00,,,0.00,Wunderground v.1.15,2013-08-24 08:14:00,
2013-08-24 03:20:00,69.0,66.9,30.09,SE,139,0.0,4.0,93,0.00,,,0.00,Wunderground v.1.15,2013-08-24 08:20:00,
2013-08-24 03:25:00,69.0,66.9,30.09,SE,139,0.0,4.0,93,0.00,,,0.00,Wunderground v.1.15,2013-08-24 08:25:00,
2013-08-24 03:31:00,69.0,66.9,30.09,SE,139,0.0,4.0,93,0.00,,,0.00,Wunderground v.1.15,2013-08-24 08:31:00,
2013-08-24 03:37:00,68.9,66.8,30.09,SE,139,0.0,4.0,93,0.00,,,0.00,Wunderground v.1.15,2013-08-24 08:37:00,
2013-08-24 03:45:00,68.8,66.7,30.09,SE,139,0.0,4.0,93,0.00,,,0.00,Wunderground v.1.15,2013-08-24 08:45:00,
2013-08-24 03:51:00,68.8,66.7,30.09,SE,139,0.0,4.0,93,0.00,,,0.00,Wunderground v.1.15,2013-08-24 08:51:00,
2013-08-24 03:56:00,68.8,67.0,30.10,SE,139,0.0,4.0,94,0.00,,,0.00,Wunderground v.1.15,2013-08-24 08:56:00,
2013-08-24 04:02:00,68.7,66.9,30.10,SE,139,0.0,4.0,94,0.00,,,0.00,Wunderground v.1.15,2013-08-24 09:02:00,
2013-08-24 04:07:00,68.7,66.9,30.10,SE,139,0.0,4.0,94,0.00,,,0.00,Wunderground v.1.15,2013-08-24 09:07:00,
2013-08-24 04:13:00,68.7,66.9,30.10,SE,139,0.0,4.0,94,0.00,,,0.00,Wunderground v.1.15,2013-08-24 09:13:00,
2013-08-24 04:19:00,68.7,66.9,30.10,SE,139,0.0,4.0,94,0.00,,,0.00,Wunderground v.1.15,2013-08-24 09:19:00,
2013-08-24 04:24:00,68.7,66.9,30.10,SE,139,0.0,4.0,94,0.00,,,0.00,Wunderground v.1.15,2013-08-24 09:24:00,
2013-08-24 04:30:00,68.7,66.9,30.10,SE,139,0.0,4.0,94,0.00,,,0.00,Wunderground v.1.15,2013-08-24 09:30:00,
2013-08-24 04:35:00,68.7,66.6,30.11,SE,139,0.0,4.0,93,0.00,,,0.00,Wunderground v.1.15,2013-08-24 09:35:00,
2013-08-24 04:41:00,68.7,66.9,30.10,SE,139,0.0,4.0,94,0.00,,,0.00,Wunderground v.1.15,2013-08-24 09:41:00,
2013-08-24 04:46:00,68.7,66.9,30.11,SE,139,0.0,4.0,94,0.00,,,0.00,Wunderground v.1.15,2013-08-24 09:46:00,
2013-08-24 04:51:00,68.7,66.9,30.11,SE,139,0.0,4.0,94,0.00,,,0.00,Wunderground v.1.15,2013-08-24 09:51:00,
2013-08-24 04:57:00,68.7,66.9,30.11,SE,139,0.0,4.0,94,0.00,,,0.00,Wunderground v.1.15,2013-08-24 09:57:00,
2013-08-24 05:03:00,68.8,67.0,30.11,SE,139,0.0,4.0,94,0.00,,,0.00,Wunderground v.1.15,2013-08-24 10:03:00,
2013-08-24 05:08:00,68.7,66.6,30.11,SE,139,0.0,4.0,93,0.00,,,0.00,Wunderground v.1.15,2013-08-24 10:08:00,
2013-08-24 05:14:00,68.7,66.6,30.11,SE,139,0.0,4.0,93,0.00,,,0.00,Wunderground v.1.15,2013-08-24 10:14:00,
2013-08-24 05:19:00,68.6,66.5,30.11,SE,139,0.0,4.0,93,0.00,,,0.00,Wunderground v.1.15,2013-08-24 10:19:00,
2013-08-24 05:25:00,68.6,66.5,30.11,SE,139,0.0,4.0,93,0.00,,,0.00,Wunderground v.1.15,2013-08-24 10:25:00,
2013-08-24 05:30:00,68.5,66.4,30.11,SE,139,0.0,4.0,93,0.00,,,0.00,Wunderground v.1.15,2013-08-24 10:30:00,
2013-08-24 05:36:00,68.5,66.4,30.12,SE,139,0.0,4.0,93,0.00,,,0.00,Wunderground v.1.15,2013-08-24 10:36:00,
2013-08-24 05:41:00,68.6,66.5,30.11,SE,139,0.0,4.0,93,0.00,,,0.00,Wunderground v.1.15,2013-08-24 10:41:00,
2013-08-24 05:47:00,68.6,66.5,30.11,SE,139,0.0,4.0,93,0.00,,,0.00,Wunderground v.1.15,2013-08-24 10:47:00,
2013-08-24 05:52:00,68.5,66.4,30.12,SE,139,0.0,4.0,93,0.00,,,0.00,Wunderground v.1.15,2013-08-24 10:52:00,
2013-08-24 06:00:00,68.5,66.4,30.12,SE,139,0.0,4.0,93,0.00,,,0.00,Wunderground v.1.15,2013-08-24 11:00:00,
2013-08-24 06:06:00,68.4,66.3,30.12,SE,139,0.0,4.0,93,0.00,,,0.00,Wunderground v.1.15,2013-08-24 11:06:00,
2013-08-24 06:12:00,68.3,66.2,30.12,SE,139,0.0,4.0,93,0.00,,,0.00,Wunderground v.1.15,2013-08-24 11:12:00,
2013-08-24 06:18:00,68.2,66.1,30.12,SE,139,0.0,4.0,93,0.00,,,0.00,Wunderground v.1.15,2013-08-24 11:18:00,
2013-08-24 06:23:00,68.2,66.1,30.13,SE,139,0.0,4.0,93,0.00,,,0.00,Wunderground v.1.15,2013-08-24 11:23:00,
2013-08-24 06:29:00,68.1,66.3,30.13,SE,139,0.0,4.0,94,0.00,,,0.00,Wunderground v.1.15,2013-08-24 11:29:00,
2013-08-24 06:34:00,68.0,66.2,30.12,SE,139,0.0,4.0,94,0.00,,,0.00,Wunderground v.1.15,2013-08-24 11:34:00,
2013-08-24 06:40:00,68.0,66.2,30.13,SE,139,0.0,4.0,94,0.00,,,0.00,Wunderground v.1.15,2013-08-24 11:40:00,
2013-08-24 06:45:00,67.9,66.1,30.13,SE,139,0.0,4.0,94,0.00,,,0.00,Wunderground v.1.15,2013-08-24 11:45:00,
2013-08-24 06:51:00,67.9,66.1,30.13,SE,139,0.0,4.0,94,0.00,,,0.00,Wunderground v.1.15,2013-08-24 11:51:00,
2013-08-24 06:56:00,68.0,66.5,30.13,SE,139,0.0,4.0,95,0.00,,,0.00,Wunderground v.1.15,2013-08-24 11:56:00,
2013-08-24 07:02:00,68.1,66.3,30.13,SE,139,0.0,4.0,94,0.00,,,0.00,Wunderground v.1.15,2013-08-24 12:02:00,
2013-08-24 07:07:00,68.3,66.5,30.14,SE,139,0.0,4.0,94,0.00,,,0.00,Wunderground v.1.15,2013-08-24 12:07:00,
2013-08-24 07:13:00,68.5,66.7,30.14,SE,139,0.0,4.0,94,0.00,,,0.00,Wunderground v.1.15,2013-08-24 12:13:00,
2013-08-24 07:18:00,68.9,67.1,30.14,SE,139,0.0,4.0,94,0.00,,,0.00,Wunderground v.1.15,2013-08-24 12:18:00,
2013-08-24 07:24:00,69.3,67.5,30.14,SE,139,0.0,4.0,94,0.00,,,0.00,Wunderground v.1.15,2013-08-24 12:24:00,
2013-08-24 07:29:00,69.6,67.8,30.15,SE,139,0.0,4.0,94,0.00,,,0.00,Wunderground v.1.15,2013-08-24 12:29:00,
2013-08-24 07:35:00,69.9,67.8,30.15,SE,139,0.0,4.0,93,0.00,,,0.00,Wunderground v.1.15,2013-08-24 12:35:00,
2013-08-24 07:41:00,70.3,68.2,30.15,SE,139,0.0,4.0,93,0.00,,,0.00,Wunderground v.1.15,2013-08-24 12:41:00,
2013-08-24 07:46:00,70.6,68.2,30.15,SE,139,0.0,4.0,92,0.00,,,0.00,Wunderground v.1.15,2013-08-24 12:46:00,
2013-08-24 07:52:00,71.0,68.6,30.15,SE,139,0.0,4.0,92,0.00,,,0.00,Wunderground v.1.15,2013-08-24 12:52:00,
2013-08-24 08:10:00,72.2,69.1,30.15,South,178,0.0,4.0,90,0.00,,,0.00,Wunderground v.1.15,2013-08-24 13:10:00,
2013-08-24 08:29:00,73.4,69.3,30.15,SW,219,3.0,4.0,87,0.00,,,0.00,Wunderground v.1.15,2013-08-24 13:29:00,
2013-08-24 08:43:00,74.4,69.9,30.15,SW,234,3.0,5.0,86,0.00,,,0.00,Wunderground v.1.15,2013-08-24 13:43:00,
2013-08-24 08:49:00,74.6,69.4,30.15,SW,236,5.0,7.0,84,0.00,,,0.00,Wunderground v.1.15,2013-08-24 13:49:00,
2013-08-24 08:54:00,74.6,69.8,30.15,SSW,205,6.0,6.0,85,0.00,,,0.00,Wunderground v.1.15,2013-08-24 13:54:00,
2013-08-24 09:00:00,75.1,69.9,30.15,West,261,5.0,5.0,84,0.00,,,0.00,Wunderground v.1.15,2013-08-24 14:00:00,
2013-08-24 09:06:00,75.3,69.8,30.15,SW,233,5.0,8.0,83,0.00,,,0.00,Wunderground v.1.15,2013-08-24 14:06:00,
2013-08-24 09:12:00,75.5,70.0,30.15,WSW,253,7.0,7.0,83,0.00,,,0.00,Wunderground v.1.15,2013-08-24 14:12:00,
2013-08-24 09:18:00,76.0,70.5,30.15,SW,233,7.0,7.0,83,0.00,,,0.00,Wunderground v.1.15,2013-08-24 14:18:00,
2013-08-24 09:23:00,76.6,70.7,30.15,West,269,5.0,8.0,82,0.00,,,0.00,Wunderground v.1.15,2013-08-24 14:23:00,
2013-08-24 09:28:00,76.8,70.9,30.15,West,259,6.0,8.0,82,0.00,,,0.00,Wunderground v.1.15,2013-08-24 14:28:00,
2013-08-24 09:34:00,77.2,70.9,30.15,SW,227,6.0,8.0,81,0.00,,,0.00,Wunderground v.1.15,2013-08-24 14:34:00,
2013-08-24 09:40:00,77.5,70.8,30.15,WSW,246,6.0,7.0,80,0.00,,,0.00,Wunderground v.1.15,2013-08-24 14:40:00,
2013-08-24 09:45:00,77.8,71.1,30.15,WSW,250,7.0,10.0,80,0.00,,,0.00,Wunderground v.1.15,2013-08-24 14:45:00,
2013-08-24 09:51:00,78.3,71.6,30.15,SSW,192,6.0,7.0,80,0.00,,,0.00,Wunderground v.1.15,2013-08-24 14:51:00,
2013-08-24 09:56:00,78.5,71.4,30.15,WSW,246,6.0,8.0,79,0.00,,,0.00,Wunderground v.1.15,2013-08-24 14:56:00,
2013-08-24 10:13:00,79.8,72.3,30.16,West,264,6.0,7.0,78,0.00,,,0.00,Wunderground v.1.15,2013-08-24 15:13:00,
2013-08-24 10:19:00,80.2,72.3,30.16,WSW,255,6.0,7.0,77,0.00,,,0.00,Wunderground v.1.15,2013-08-24 15:19:00,
2013-08-24 10:24:00,80.9,73.4,30.16,WSW,240,6.0,8.0,78,0.00,,,0.00,Wunderground v.1.15,2013-08-24 15:24:00,
2013-08-24 10:30:00,81.4,73.1,30.16,West,273,5.0,8.0,76,0.00,,,0.00,Wunderground v.1.15,2013-08-24 15:30:00,
2013-08-24 10:35:00,81.5,73.2,30.16,SW,236,5.0,9.0,76,0.00,,,0.00,Wunderground v.1.15,2013-08-24 15:35:00,
2013-08-24 10:41:00,82.2,73.9,30.16,WSW,251,5.0,9.0,76,0.00,,,0.00,Wunderground v.1.15,2013-08-24 15:41:00,
2013-08-24 10:48:00,82.7,73.6,30.15,WSW,241,5.0,5.0,74,0.00,,,0.00,Wunderground v.1.15,2013-08-24 15:48:00,
2013-08-24 11:02:00,83.0,73.0,30.15,West,273,6.0,6.0,72,0.00,,,0.00,Wunderground v.1.15,2013-08-24 16:02:00,
2013-08-24 11:17:00,83.5,73.5,30.15,SW,236,5.0,5.0,72,0.00,,,0.00,Wunderground v.1.15,2013-08-24 16:17:00,
2013-08-24 11:23:00,83.2,73.2,30.15,SW,236,5.0,8.0,72,0.00,,,0.00,Wunderground v.1.15,2013-08-24 16:23:00,
2013-08-24 11:28:00,83.3,73.7,30.15,West,261,5.0,8.0,73,0.00,,,0.00,Wunderground v.1.15,2013-08-24 16:28:00,
2013-08-24 11:34:00,83.9,73.9,30.15,SW,233,4.0,5.0,72,0.00,,,0.00,Wunderground v.1.15,2013-08-24 16:34:00,
2013-08-24 11:40:00,84.5,74.5,30.15,SW,236,3.0,3.0,72,0.00,,,0.00,Wunderground v.1.15,2013-08-24 16:40:00,
2013-08-24 11:45:00,84.8,73.5,30.15,SW,229,3.0,6.0,69,0.00,,,0.00,Wunderground v.1.15,2013-08-24 16:45:00,
2013-08-24 11:50:00,85.1,74.2,30.15,West,259,2.0,4.0,70,0.00,,,0.00,Wunderground v.1.15,2013-08-24 16:50:00,
2013-08-24 11:56:00,85.1,73.8,30.15,WSW,244,3.0,7.0,69,0.00,,,0.00,Wunderground v.1.15,2013-08-24 16:56:00,
2013-08-24 12:02:00,85.7,74.8,30.15,SSW,207,2.0,5.0,70,0.00,,,0.00,Wunderground v.1.15,2013-08-24 17:02:00,
2013-08-24 12:07:00,86.1,74.3,30.15,SW,223,2.0,5.0,68,0.00,,,0.00,Wunderground v.1.15,2013-08-24 17:07:00,
2013-08-24 12:13:00,86.5,74.2,30.15,SW,224,2.0,6.0,67,0.00,,,0.00,Wunderground v.1.15,2013-08-24 17:13:00,
2013-08-24 12:19:00,86.2,74.0,30.14,WSW,250,4.0,6.0,67,0.00,,,0.00,Wunderground v.1.15,2013-08-24 17:19:00,
2013-08-24 12:25:00,86.3,74.5,30.14,SSW,208,3.0,5.0,68,0.00,,,0.00,Wunderground v.1.15,2013-08-24 17:25:00,
2013-08-24 12:30:00,86.5,74.2,30.14,SW,215,3.0,3.0,67,0.00,,,0.00,Wunderground v.1.15,2013-08-24 17:30:00,
2013-08-24 12:36:00,86.6,74.3,30.14,SW,228,4.0,9.0,67,0.00,,,0.00,Wunderground v.1.15,2013-08-24 17:36:00,
2013-08-24 12:41:00,86.6,74.3,30.14,West,263,5.0,8.0,67,0.00,,,0.00,Wunderground v.1.15,2013-08-24 17:41:00,
2013-08-24 12:47:00,86.3,73.6,30.13,WSW,250,6.0,8.0,66,0.00,,,0.00,Wunderground v.1.15,2013-08-24 17:47:00,
2013-08-24 12:52:00,86.5,74.2,30.13,West,263,5.0,8.0,67,0.00,,,0.00,Wunderground v.1.15,2013-08-24 17:52:00,
2013-08-24 12:58:00,86.8,73.6,30.13,West,265,6.0,8.0,65,0.00,,,0.00,Wunderground v.1.15,2013-08-24 17:58:00,
2013-08-24 13:03:00,87.0,73.8,30.13,SSW,196,6.0,7.0,65,0.00,,,0.00,Wunderground v.1.15,2013-08-24 18:03:00,
2013-08-24 13:09:00,87.1,73.4,30.13,WNW,298,5.0,7.0,64,0.00,,,0.00,Wunderground v.1.15,2013-08-24 18:09:00,
2013-08-24 13:15:00,87.1,73.0,30.13,WNW,284,5.0,10.0,63,0.00,,,0.00,Wunderground v.1.15,2013-08-24 18:15:00,
2013-08-24 13:20:00,87.4,73.3,30.13,WSW,258,5.0,7.0,63,0.00,,,0.00,Wunderground v.1.15,2013-08-24 18:20:00,
2013-08-24 13:26:00,87.5,71.9,30.13,SW,233,6.0,8.0,60,0.00,,,0.00,Wunderground v.1.15,2013-08-24 18:26:00,
2013-08-24 13:31:00,88.0,71.9,30.13,SSW,207,5.0,9.0,59,0.00,,,0.00,Wunderground v.1.15,2013-08-24 18:31:00,
2013-08-24 13:37:00,88.5,71.3,30.13,WSW,244,4.0,9.0,57,0.00,,,0.00,Wunderground v.1.15,2013-08-24 18:37:00,
2013-08-24 13:42:00,88.4,70.7,30.13,SSW,198,5.0,8.0,56,0.00,,,0.00,Wunderground v.1.15,2013-08-24 18:42:00,
2013-08-24 13:48:00,88.4,71.2,30.13,WSW,239,6.0,8.0,57,0.00,,,0.00,Wunderground v.1.15,2013-08-24 18:48:00,
2013-08-24 13:53:00,88.6,71.9,30.13,West,274,5.0,9.0,58,0.00,,,0.00,Wunderground v.1.15,2013-08-24 18:53:00,
2013-08-24 13:59:00,88.8,72.6,30.13,SW,233,5.0,9.0,59,0.00,,,0.00,Wunderground v.1.15,2013-08-24 18:59:00,
2013-08-24 14:04:00,88.8,72.6,30.13,SW,230,4.0,6.0,59,0.00,,,0.00,Wunderground v.1.15,2013-08-24 19:04:00,
2013-08-24 14:10:00,89.2,72.5,30.12,SW,224,3.0,3.0,58,0.00,,,0.00,Wunderground v.1.15,2013-08-24 19:10:00,
2013-08-24 14:15:00,89.5,73.8,30.12,WSW,258,4.0,8.0,60,0.00,,,0.00,Wunderground v.1.15,2013-08-24 19:15:00,
2013-08-24 14:21:00,89.3,72.1,30.12,SW,223,4.0,4.0,57,0.00,,,0.00,Wunderground v.1.15,2013-08-24 19:21:00,
2013-08-24 14:26:00,89.3,72.1,30.12,West,260,4.0,8.0,57,0.00,,,0.00,Wunderground v.1.15,2013-08-24 19:26:00,
2013-08-24 14:32:00,89.1,72.9,30.12,WSW,251,7.0,7.0,59,0.00,,,0.00,Wunderground v.1.15,2013-08-24 19:32:00,
2013-08-24 14:37:00,89.6,73.4,30.12,SW,236,6.0,9.0,59,0.00,,,0.00,Wunderground v.1.15,2013-08-24 19:37:00,
2013-08-24 14:43:00,89.8,72.5,30.12,WSW,239,5.0,6.0,57,0.00,,,0.00,Wunderground v.1.15,2013-08-24 19:43:00,
2013-08-24 14:48:00,90.4,72.6,30.12,WSW,241,4.0,7.0,56,0.00,,,0.00,Wunderground v.1.15,2013-08-24 19:48:00,
2013-08-24 14:54:00,89.5,72.8,30.11,WSW,253,5.0,9.0,58,0.00,,,0.00,Wunderground v.1.15,2013-08-24 19:54:00,
2013-08-24 14:59:00,88.9,71.7,30.11,South,182,7.0,11.0,57,0.00,,,0.00,Wunderground v.1.15,2013-08-24 19:59:00,
2013-08-24 15:05:00,89.2,72.0,30.11,WSW,242,7.0,11.0,57,0.00,,,0.00,Wunderground v.1.15,2013-08-24 20:05:00,
2013-08-24 15:10:00,89.3,72.1,30.11,SW,222,6.0,6.0,57,0.00,,,0.00,Wunderground v.1.15,2013-08-24 20:10:00,
2013-08-24 15:16:00,89.2,72.0,30.11,WSW,240,5.0,8.0,57,0.00,,,0.00,Wunderground v.1.15,2013-08-24 20:16:00,
2013-08-24 15:21:00,88.6,71.4,30.11,SSW,194,5.0,5.0,57,0.00,,,0.00,Wunderground v.1.15,2013-08-24 20:21:00,
2013-08-24 15:27:00,89.7,71.4,30.10,WSW,246,3.0,8.0,55,0.00,,,0.00,Wunderground v.1.15,2013-08-24 20:27:00,
2013-08-24 15:32:00,89.8,72.0,30.10,WSW,257,4.0,6.0,56,0.00,,,0.00,Wunderground v.1.15,2013-08-24 20:32:00,
2013-08-24 15:38:00,90.0,71.7,30.10,SW,226,6.0,8.0,55,0.00,,,0.00,Wunderground v.1.15,2013-08-24 20:38:00,
2013-08-24 15:43:00,90.4,70.9,30.10,SW,236,4.0,5.0,53,0.00,,,0.00,Wunderground v.1.15,2013-08-24 20:43:00,
2013-08-24 15:49:00,90.1,71.2,30.10,WSW,253,4.0,9.0,54,0.00,,,0.00,Wunderground v.1.15,2013-08-24 20:49:00,
2013-08-24 15:54:00,89.6,71.3,30.10,West,266,6.0,9.0,55,0.00,,,0.00,Wunderground v.1.15,2013-08-24 20:54:00,
2013-08-24 16:00:00,89.7,70.3,30.10,WNW,286,7.0,7.0,53,0.00,,,0.00,Wunderground v.1.15,2013-08-24 21:00:00,
2013-08-24 16:05:00,89.5,70.7,30.10,SW,223,7.0,7.0,54,0.00,,,0.00,Wunderground v.1.15,2013-08-24 21:05:00,
2013-08-24 16:11:00,89.6,70.2,30.10,WSW,237,5.0,6.0,53,0.00,,,0.00,Wunderground v.1.15,2013-08-24 21:11:00,
2013-08-24 16:16:00,89.7,71.4,30.10,SW,222,4.0,7.0,55,0.00,,,0.00,Wunderground v.1.15,2013-08-24 21:16:00,
2013-08-24 16:22:00,89.3,69.9,30.10,WSW,254,5.0,5.0,53,0.00,,,0.00,Wunderground v.1.15,2013-08-24 21:22:00,
2013-08-24 16:27:00,89.2,70.4,30.10,SW,235,4.0,6.0,54,0.00,,,0.00,Wunderground v.1.15,2013-08-24 21:27:00,
2013-08-24 16:33:00,88.9,69.6,30.10,SW,215,3.0,6.0,53,0.00,,,0.00,Wunderground v.1.15,2013-08-24 21:33:00,
2013-08-24 16:38:00,88.7,70.5,30.10,SW,227,3.0,6.0,55,0.00,,,0.00,Wunderground v.1.15,2013-08-24 21:38:00,
2013-08-24 16:44:00,88.7,69.4,30.10,SW,220,3.0,5.0,53,0.00,,,0.00,Wunderground v.1.15,2013-08-24 21:44:00,
2013-08-24 16:49:00,88.5,70.3,30.10,SSW,205,3.0,5.0,55,0.00,,,0.00,Wunderground v.1.15,2013-08-24 21:49:00,
2013-08-24 16:55:00,88.7,70.5,30.10,SSW,213,2.0,4.0,55,0.00,,,0.00,Wunderground v.1.15,2013-08-24 21:55:00,
2013-08-24 17:00:00,88.5,70.3,30.09,SW,235,2.0,5.0,55,0.00,,,0.00,Wunderground v.1.15,2013-08-24 22:00:00,
2013-08-24 17:06:00,88.6,70.4,30.10,WSW,238,3.0,7.0,55,0.00,,,0.00,Wunderground v.1.15,2013-08-24 22:06:00,
2013-08-24 17:11:00,88.5,70.3,30.09,WSW,248,4.0,6.0,55,0.00,,,0.00,Wunderground v.1.15,2013-08-24 22:11:00,
2013-08-24 17:17:00,88.2,70.5,30.09,WSW,238,3.0,6.0,56,0.00,,,0.00,Wunderground v.1.15,2013-08-24 22:17:00,
2013-08-24 17:22:00,88.0,70.3,30.09,WSW,238,1.0,4.0,56,0.00,,,0.00,Wunderground v.1.15,2013-08-24 22:22:00,
2013-08-24 17:28:00,87.8,70.1,30.09,WSW,237,0.0,4.0,56,0.00,,,0.00,Wunderground v.1.15,2013-08-24 22:28:00,
2013-08-24 17:33:00,87.6,70.5,30.09,WSW,237,0.0,4.0,57,0.00,,,0.00,Wunderground v.1.15,2013-08-24 22:33:00,
2013-08-24 17:39:00,87.3,72.7,30.09,WSW,237,0.0,4.0,62,0.00,,,0.00,Wunderground v.1.15,2013-08-24 22:39:00,
2013-08-24 17:46:00,87.3,72.7,30.09,SW,221,1.0,4.0,62,0.00,,,0.00,Wunderground v.1.15,2013-08-24 22:46:00,
2013-08-24 17:51:00,87.6,73.0,30.09,SW,221,1.0,4.0,62,0.00,,,0.00,Wunderground v.1.15,2013-08-24 22:51:00,
2013-08-24 17:56:00,87.9,73.7,30.08,SW,215,0.0,4.0,63,0.00,,,0.00,Wunderground v.1.15,2013-08-24 22:56:00,
2013-08-24 18:02:00,88.3,73.1,30.08,South,182,0.0,4.0,61,0.00,,,0.00,Wunderground v.1.15,2013-08-24 23:02:00,
2013-08-24 18:07:00,88.4,72.7,30.08,SSW,199,0.0,4.0,60,0.00,,,0.00,Wunderground v.1.15,2013-08-24 23:07:00,
2013-08-24 18:13:00,88.0,72.4,30.08,SW,222,0.0,4.0,60,0.00,,,0.00,Wunderground v.1.15,2013-08-24 23:13:00,
2013-08-24 18:18:00,87.4,72.3,30.08,SSW,213,0.0,4.0,61,0.00,,,0.00,Wunderground v.1.15,2013-08-24 23:18:00,
2013-08-24 18:24:00,86.7,72.1,30.08,SSW,213,0.0,4.0,62,0.00,,,0.00,Wunderground v.1.15,2013-08-24 23:24:00,
2013-08-24 18:30:00,86.2,72.1,30.08,SSW,213,0.0,4.0,63,0.00,,,0.00,Wunderground v.1.15,2013-08-24 23:30:00,
2013-08-24 18:35:00,85.7,72.1,30.08,SSW,213,0.0,4.0,64,0.00,,,0.00,Wunderground v.1.15,2013-08-24 23:35:00,
2013-08-24 18:40:00,85.3,72.2,30.08,SSW,213,0.0,4.0,65,0.00,,,0.00,Wunderground v.1.15,2013-08-24 23:40:00,
2013-08-24 18:46:00,84.6,72.4,30.08,SSW,213,0.0,4.0,67,0.00,,,0.00,Wunderground v.1.15,2013-08-24 23:46:00,
2013-08-24 18:52:00,83.5,71.8,30.08,SSW,213,0.0,4.0,68,0.00,,,0.00,Wunderground v.1.15,2013-08-24 23:52:00,
2013-08-24 18:57:00,82.8,72.0,30.08,ESE,121,0.0,4.0,70,0.00,,,0.00,Wunderground v.1.15,2013-08-24 23:57:00,
2013-08-24 19:02:00,82.3,71.5,30.08,ESE,121,0.0,4.0,70,0.00,,,0.00,Wunderground v.1.15,2013-08-25 00:02:00,
2013-08-24 19:08:00,81.7,71.4,30.08,ESE,121,0.0,4.0,71,0.00,,,0.00,Wunderground v.1.15,2013-08-25 00:08:00,
2013-08-24 19:14:00,81.2,71.3,30.08,ESE,121,0.0,4.0,72,0.00,,,0.00,Wunderground v.1.15,2013-08-25 00:14:00,
2013-08-24 19:19:00,80.8,71.3,30.08,ESE,121,0.0,4.0,73,0.00,,,0.00,Wunderground v.1.15,2013-08-25 00:19:00,
2013-08-24 19:25:00,80.5,71.4,30.08,ESE,121,0.0,4.0,74,0.00,,,0.00,Wunderground v.1.15,2013-08-25 00:25:00,
2013-08-24 19:30:00,80.3,71.3,30.08,ESE,121,0.0,4.0,74,0.00,,,0.00,Wunderground v.1.15,2013-08-25 00:30:00,
2013-08-24 19:36:00,80.0,71.4,30.08,SSE,159,0.0,4.0,75,0.00,,,0.00,Wunderground v.1.15,2013-08-25 00:36:00,
2013-08-24 19:41:00,79.8,71.2,30.08,SSE,159,0.0,4.0,75,0.00,,,0.00,Wunderground v.1.15,2013-08-25 00:41:00,
2013-08-24 19:47:00,79.4,71.2,30.08,SSE,159,0.0,4.0,76,0.00,,,0.00,Wunderground v.1.15,2013-08-25 00:47:00,
2013-08-24 19:52:00,79.1,70.9,30.08,SSE,165,0.0,4.0,76,0.00,,,0.00,Wunderground v.1.15,2013-08-25 00:52:00,
2013-08-24 19:58:00,78.9,70.7,30.09,SSE,165,0.0,4.0,76,0.00,,,0.00,Wunderground v.1.15,2013-08-25 00:58:00,
2013-08-24 20:03:00,78.7,70.5,30.09,SSE,165,0.0,4.0,76,0.00,,,0.00,Wunderground v.1.15,2013-08-25 01:03:00,
2013-08-24 20:09:00,78.5,70.3,30.09,SSE,165,0.0,4.0,76,0.00,,,0.00,Wunderground v.1.15,2013-08-25 01:09:00,
2013-08-24 20:14:00,78.3,70.5,30.09,SSE,165,0.0,4.0,77,0.00,,,0.00,Wunderground v.1.15,2013-08-25 01:14:00,
2013-08-24 20:20:00,78.0,70.2,30.09,SSE,165,0.0,4.0,77,0.00,,,0.00,Wunderground v.1.15,2013-08-25 01:20:00,
2013-08-24 20:25:00,77.8,70.4,30.09,SSE,165,0.0,4.0,78,0.00,,,0.00,Wunderground v.1.15,2013-08-25 01:25:00,
2013-08-24 20:31:00,77.7,70.3,30.09,SSE,167,0.0,4.0,78,0.00,,,0.00,Wunderground v.1.15,2013-08-25 01:31:00,
2013-08-24 20:37:00,77.5,70.1,30.09,SSE,167,0.0,4.0,78,0.00,,,0.00,Wunderground v.1.15,2013-08-25 01:37:00,
2013-08-24 20:43:00,77.4,70.0,30.09,SSE,167,0.0,4.0,78,0.00,,,0.00,Wunderground v.1.15,2013-08-25 01:43:00,
2013-08-24 20:55:00,77.2,70.2,30.10,SSE,167,0.0,4.0,79,0.00,,,0.00,Wunderground v.1.15,2013-08-25 01:55:00,
2013-08-24 21:00:00,77.0,70.0,30.10,SSE,167,0.0,4.0,79,0.00,,,0.00,Wunderground v.1.15,2013-08-25 02:00:00,
2013-08-24 21:06:00,76.9,69.9,30.11,SSE,167,0.0,4.0,79,0.00,,,0.00,Wunderground v.1.15,2013-08-25 02:06:00,
2013-08-24 21:11:00,76.7,69.7,30.11,SSE,167,0.0,4.0,79,0.00,,,0.00,Wunderground v.1.15,2013-08-25 02:11:00,
2013-08-24 21:16:00,76.5,69.9,30.11,SSE,167,0.0,4.0,80,0.00,,,0.00,Wunderground v.1.15,2013-08-25 02:16:00,
2013-08-24 21:22:00,76.3,69.7,30.11,SSE,167,0.0,4.0,80,0.00,,,0.00,Wunderground v.1.15,2013-08-25 02:22:00,
2013-08-24 21:28:00,76.2,69.6,30.12,SSE,167,0.0,4.0,80,0.00,,,0.00,Wunderground v.1.15,2013-08-25 02:28:00,
2013-08-24 21:33:00,76.2,69.6,30.12,South,170,0.0,4.0,80,0.00,,,0.00,Wunderground v.1.15,2013-08-25 02:33:00,
2013-08-24 21:38:00,76.1,69.5,30.12,South,191,0.0,4.0,80,0.00,,,0.00,Wunderground v.1.15,2013-08-25 02:38:00,
2013-08-24 21:55:00,76.0,69.0,30.12,SW,221,1.0,4.0,79,0.00,,,0.00,Wunderground v.1.15,2013-08-25 02:55:00,
2013-08-24 22:01:00,76.0,69.0,30.12,SW,223,1.0,4.0,79,0.00,,,0.00,Wunderground v.1.15,2013-08-25 03:01:00,
2013-08-24 22:21:00,75.5,68.9,30.12,SW,227,2.0,4.0,80,0.00,,,0.00,Wunderground v.1.15,2013-08-25 03:21:00,
2013-08-24 22:27:00,75.3,68.7,30.12,SW,227,1.0,4.0,80,0.00,,,0.00,Wunderground v.1.15,2013-08-25 03:27:00,
2013-08-24 22:32:00,75.1,68.9,30.12,SW,227,1.0,4.0,81,0.00,,,0.00,Wunderground v.1.15,2013-08-25 03:32:00,
2013-08-24 22:38:00,74.9,68.7,30.12,SW,227,1.0,4.0,81,0.00,,,0.00,Wunderground v.1.15,2013-08-25 03:38:00,
2013-08-24 22:43:00,74.7,68.5,30.13,SW,227,1.0,4.0,81,0.00,,,0.00,Wunderground v.1.15,2013-08-25 03:43:00,
2013-08-24 22:49:00,74.5,68.6,30.13,SW,227,1.0,4.0,82,0.00,,,0.00,Wunderground v.1.15,2013-08-25 03:49:00,
2013-08-24 22:54:00,74.4,68.5,30.13,SW,227,1.0,4.0,82,0.00,,,0.00,Wunderground v.1.15,2013-08-25 03:54:00,
2013-08-24 23:00:00,74.2,68.3,30.13,SW,227,1.0,4.0,82,0.00,,,0.00,Wunderground v.1.15,2013-08-25 04:00:00,
2013-08-24 23:01:00,74.2,68.3,30.13,SW,227,1.0,4.0,82,0.00,,,0.00,Wunderground v.1.15,2013-08-25 04:01:00,
2013-08-24 23:02:00,74.2,68.3,30.13,SW,227,1.0,4.0,82,0.00,,,0.00,Wunderground v.1.15,2013-08-25 04:02:00,
2013-08-24 23:04:00,74.1,68.3,30.13,SW,227,1.0,4.0,82,0.00,,,0.00,Wunderground v.1.15,2013-08-25 04:04:00,
2013-08-24 23:05:00,74.1,68.3,30.13,SW,227,1.0,4.0,82,0.00,,,0.00,Wunderground v.1.15,2013-08-25 04:05:00,
2013-08-24 23:07:00,74.0,68.2,30.13,SW,227,1.0,4.0,82,0.00,,,0.00,Wunderground v.1.15,2013-08-25 04:07:00,
2013-08-24 23:13:00,74.0,68.2,30.13,SW,227,1.0,4.0,82,0.00,,,0.00,Wunderground v.1.15,2013-08-25 04:13:00,
2013-08-24 23:18:00,73.9,68.4,30.13,SW,227,2.0,4.0,83,0.00,,,0.00,Wunderground v.1.15,2013-08-25 04:18:00,
2013-08-24 23:24:00,73.7,68.2,30.13,SW,227,1.0,4.0,83,0.00,,,0.00,Wunderground v.1.15,2013-08-25 04:24:00,
2013-08-24 23:29:00,73.6,68.1,30.13,SW,227,1.0,4.0,83,0.00,,,0.00,Wunderground v.1.15,2013-08-25 04:29:00,
2013-08-24 23:35:00,73.5,68.0,30.13,SW,227,1.0,4.0,83,0.00,,,0.00,Wunderground v.1.15,2013-08-25 04:35:00,
2013-08-24 23:40:00,73.3,67.8,30.14,SW,227,1.0,4.0,83,0.00,,,0.00,Wunderground v.1.15,2013-08-25 04:40:00,
2013-08-24 23:46:00,73.3,67.8,30.14,SW,227,2.0,4.0,83,0.00,,,0.00,Wunderground v.1.15,2013-08-25 04:46:00,
2013-08-24 23:51:00,73.1,67.6,30.14,SW,227,2.0,4.0,83,0.00,,,0.00,Wunderground v.1.15,2013-08-25 04:51:00,
2013-08-24 23:57:00,73.1,67.6,30.14,WSW,244,3.0,5.0,83,0.00,,,0.00,Wunderground v.1.15,2013-08-25 04:57:00,